Time;durP1;ratioP1;P1;durP2;ratioP2;P2;SDS_P1;SDS_P2;PMS_P1;PMS_P2;Temp;Humidity;BMP_temperature;BMP_pressure;BME280_temperature;BME280_humidity;BME280_pressure;Samples;Min_cycle;Max_cycle;Signal;HPM_P1;HPM_P2
2022/04/18 00:01:19;;;;;;;3.67;2.60;;;;;;;-155.54;100.00;57697.75;5022759;28;20090;-69
2022/04/18 00:03:45;;;;;;;4.45;2.40;;;;;;;-155.54;100.00;57697.75;5023340;28;20514;-67
2022/04/18 00:06:10;;;;;;;3.63;2.50;;;;;;;-155.54;100.00;57697.75;5023309;28;20089;-68
2022/04/18 00:08:36;;;;;;;3.40;2.55;;;;;;;-155.54;100.00;57697.75;5020942;28;20098;-66
2022/04/18 00:11:01;;;;;;;4.20;2.28;;;;;;;-155.54;100.00;57697.75;5009740;28;20538;-66
2022/04/18 00:13:27;;;;;;;4.38;2.38;;;;;;;-155.54;100.00;57697.75;5023709;28;20505;-66
2022/04/18 00:15:52;;;;;;;3.28;2.25;;;;;;;-155.54;100.00;57697.75;5022914;28;20109;-68
2022/04/18 00:18:17;;;;;;;2.97;2.50;;;;;;;-155.54;100.00;57697.75;5023423;28;20080;-66
2022/04/18 00:20:43;;;;;;;4.22;2.50;;;;;;;-155.54;100.00;57697.75;5022868;28;20621;-69
2022/04/18 00:23:08;;;;;;;2.30;2.10;;;;;;;-155.54;100.00;57697.75;5018928;28;20112;-67
2022/04/18 00:25:34;;;;;;;2.90;2.20;;;;;;;-155.54;100.00;57697.75;5003418;28;20128;-65
2022/04/18 00:27:59;;;;;;;4.25;2.25;;;;;;;-155.54;100.00;57697.75;5017411;28;20460;-68
2022/04/18 00:30:24;;;;;;;4.80;2.33;;;;;;;-155.54;100.00;57697.75;5031492;28;20129;-67
2022/04/18 00:32:50;;;;;;;3.70;2.30;;;;;;;-155.54;100.00;57697.75;4996734;28;20144;-68
2022/04/18 00:35:15;;;;;;;3.53;2.45;;;;;;;-155.54;100.00;57697.75;4995778;28;20193;-66
2022/04/18 00:37:41;;;;;;;3.50;2.35;;;;;;;-155.54;100.00;57697.75;5016296;28;20097;-66
2022/04/18 00:40:07;;;;;;;4.38;2.38;;;;;;;-155.54;100.00;57697.75;5031322;28;20754;-68
2022/04/18 00:42:33;;;;;;;2.33;2.13;;;;;;;-155.54;100.00;57697.75;5022600;28;20589;-66
2022/04/18 00:44:59;;;;;;;3.00;2.03;;;;;;;-155.54;100.00;57697.75;4992438;28;20094;-65
2022/04/18 00:47:24;;;;;;;5.50;2.30;;;;;;;-155.54;100.00;57697.75;5006426;28;20102;-68
2022/04/18 00:49:49;;;;;;;2.55;2.10;;;;;;;-155.54;100.00;57697.75;5022195;28;20131;-68
2022/04/18 00:52:15;;;;;;;4.90;2.30;;;;;;;-155.54;100.00;57697.75;5032676;28;20469;-65
2022/04/18 00:54:40;;;;;;;3.13;2.33;;;;;;;-155.54;100.00;57697.75;5006466;28;20079;-66
2022/04/18 00:57:06;;;;;;;3.20;2.40;;;;;;;-155.54;100.00;57697.75;4995284;28;20187;-70
2022/04/18 00:59:32;;;;;;;3.10;2.30;;;;;;;-155.54;100.00;57697.75;5005005;28;20113;-66
2022/04/18 01:01:57;;;;;;;3.50;2.47;;;;;;;-155.54;100.00;57697.75;5018557;28;20548;-69
2022/04/18 01:04:23;;;;;;;5.18;2.28;;;;;;;-155.54;100.00;57697.75;5014015;28;20507;-67
2022/04/18 01:06:48;;;;;;;2.92;2.40;;;;;;;-155.54;100.00;57697.75;5013204;28;20106;-68
2022/04/18 01:09:13;;;;;;;2.80;2.30;;;;;;;-155.54;100.00;57697.75;5014528;28;20118;-67
2022/04/18 01:11:39;;;;;;;2.92;2.00;;;;;;;-155.54;100.00;57697.75;5007275;28;20106;-70
2022/04/18 01:14:04;;;;;;;3.22;2.30;;;;;;;-155.54;100.00;57697.75;5013962;28;20086;-67
2022/04/18 01:16:30;;;;;;;3.28;2.22;;;;;;;-155.54;100.00;57697.75;5010006;28;20565;-67
2022/04/18 01:18:57;;;;;;;2.85;2.15;;;;;;;-155.54;100.00;57697.75;5016072;28;20565;-69
2022/04/18 01:21:22;;;;;;;3.95;2.20;;;;;;;-155.54;100.00;57697.75;5009058;28;20191;-67
2022/04/18 01:23:48;;;;;;;2.75;2.30;;;;;;;-155.54;100.00;57697.75;5006217;28;20109;-67
2022/04/18 01:29:05;;;;;;;3.60;2.28;;;;;;;-155.54;100.00;57697.75;5014394;28;20117;-67
2022/04/18 01:31:31;;;;;;;7.45;2.38;;;;;;;-155.54;100.00;57697.75;5008260;28;20383;-66
2022/04/18 01:33:57;;;;;;;3.13;2.40;;;;;;;-155.54;100.00;57697.75;5014001;28;20078;-67
2022/04/18 01:36:24;;;;;;;2.60;1.98;;;;;;;-155.54;100.00;57697.75;5009145;28;20128;-66
2022/04/18 01:38:49;;;;;;;6.07;2.30;;;;;;;-155.54;100.00;57697.75;5018943;28;20558;-67
2022/04/18 01:41:15;;;;;;;3.80;2.25;;;;;;;-155.54;100.00;57697.75;5012804;28;20225;-66
2022/04/18 01:43:40;;;;;;;3.72;2.47;;;;;;;-155.54;100.00;57697.75;5017531;28;20578;-66
2022/04/18 01:46:05;;;;;;;2.63;2.10;;;;;;;-155.54;100.00;57697.75;5024083;28;20531;-66
2022/04/18 01:48:31;;;;;;;2.72;2.38;;;;;;;-155.54;100.00;57697.75;5024718;28;20105;-69
2022/04/18 01:50:56;;;;;;;3.40;2.40;;;;;;;-155.54;100.00;57697.75;5021481;28;20555;-66
2022/04/18 01:53:22;;;;;;;3.03;2.33;;;;;;;-155.54;100.00;57697.75;4993152;28;20130;-67
2022/04/18 01:55:48;;;;;;;4.03;2.50;;;;;;;-155.54;100.00;57697.75;4992104;28;20474;-68
2022/04/18 01:58:13;;;;;;;3.25;2.15;;;;;;;-155.54;100.00;57697.75;4986564;28;20087;-67
2022/04/18 02:00:39;;;;;;;5.70;2.20;;;;;;;-155.54;100.00;57697.75;5014985;28;20581;-66
2022/04/18 02:03:05;;;;;;;3.83;2.42;;;;;;;-155.54;100.00;57697.75;5029424;28;20116;-67
2022/04/18 02:05:30;;;;;;;4.90;2.30;;;;;;;-155.54;100.00;57697.75;5020831;28;20081;-67
2022/04/18 02:07:55;;;;;;;3.08;1.98;;;;;;;-155.54;100.00;57697.75;5007144;28;20109;-66
2022/04/18 02:10:21;;;;;;;3.15;2.40;;;;;;;-155.54;100.00;57697.75;4992789;28;20157;-64
2022/04/18 02:12:46;;;;;;;2.83;2.22;;;;;;;-155.54;100.00;57697.75;5012584;28;20453;-66
2022/04/18 02:15:12;;;;;;;3.17;2.30;;;;;;;-155.54;100.00;57697.75;5014846;28;20139;-67
2022/04/18 02:17:37;;;;;;;5.63;2.70;;;;;;;-155.54;100.00;57697.75;5031230;28;20084;-68
2022/04/18 02:20:03;;;;;;;5.20;2.40;;;;;;;-155.54;100.00;57697.75;5002331;28;20103;-66
2022/04/18 02:22:30;;;;;;;4.03;2.58;;;;;;;-155.54;100.00;57697.75;4989545;28;20136;-68
2022/04/18 02:24:57;;;;;;;4.13;2.50;;;;;;;-155.54;100.00;57697.75;4997763;28;20536;-67
2022/04/18 02:27:22;;;;;;;3.05;2.38;;;;;;;-155.54;100.00;57697.75;5004827;28;20102;-65
2022/04/18 02:29:48;;;;;;;4.30;2.55;;;;;;;-155.54;100.00;57697.75;5004951;28;20098;-66
2022/04/18 02:34:57;;;;;;;3.85;2.42;;;;;;;-155.54;100.00;57697.75;5002694;28;20702;-69
2022/04/18 02:37:22;;;;;;;2.53;2.33;;;;;;;-155.54;100.00;57697.75;4991263;28;20078;-66
2022/04/18 02:39:48;;;;;;;2.60;2.20;;;;;;;-155.54;100.00;57697.75;5003146;28;20183;-65
2022/04/18 02:42:13;;;;;;;4.20;2.40;;;;;;;-155.54;100.00;57697.75;4991728;28;20341;-67
2022/04/18 02:44:42;;;;;;;3.25;2.25;;;;;;;-155.54;100.00;57697.75;5004168;28;20118;-66
2022/04/18 02:47:07;;;;;;;3.45;2.40;;;;;;;-155.54;100.00;57697.75;4991495;28;20105;-68
2022/04/18 02:49:32;;;;;;;3.10;2.35;;;;;;;-155.54;100.00;57697.75;5001867;28;20540;-67
2022/04/18 02:51:58;;;;;;;4.18;2.35;;;;;;;-155.54;100.00;57697.75;5001875;28;20110;-67
2022/04/18 02:54:23;;;;;;;3.40;2.38;;;;;;;-155.54;100.00;57697.75;5002660;28;20078;-68
2022/04/18 02:56:48;;;;;;;3.20;2.30;;;;;;;-155.54;100.00;57697.75;5000962;28;20099;-66
2022/04/18 02:59:14;;;;;;;4.78;2.30;;;;;;;-155.54;100.00;57697.75;5002520;28;20547;-67
2022/04/18 03:01:40;;;;;;;2.50;2.05;;;;;;;-155.54;100.00;57697.75;4993788;28;20103;-67
2022/04/18 03:04:05;;;;;;;4.13;2.05;;;;;;;-155.54;100.00;57697.75;4995284;28;20103;-67
2022/04/18 03:06:30;;;;;;;4.78;2.42;;;;;;;-155.54;100.00;57697.75;4996470;28;20074;-66
2022/04/18 03:08:56;;;;;;;2.78;2.30;;;;;;;-155.54;100.00;57697.75;5001975;28;20172;-68
2022/04/18 03:11:21;;;;;;;3.63;2.30;;;;;;;-155.54;100.00;57697.75;4997897;28;20106;-67
2022/04/18 03:13:47;;;;;;;5.28;2.15;;;;;;;-155.54;100.00;57697.75;4998966;28;20079;-68
2022/04/18 03:16:13;;;;;;;4.63;2.45;;;;;;;-155.54;100.00;57697.75;4996370;28;20129;-67
2022/04/18 03:18:38;;;;;;;2.30;2.10;;;;;;;-155.54;100.00;57697.75;4984495;28;20558;-66
2022/04/18 03:21:04;;;;;;;2.90;2.17;;;;;;;-155.54;100.00;57697.75;4998515;28;20109;-67
2022/04/18 03:23:30;;;;;;;2.53;2.20;;;;;;;-155.54;100.00;57697.75;4991655;28;20588;-66
2022/04/18 03:25:56;;;;;;;4.55;2.15;;;;;;;-155.54;100.00;57697.75;5002590;28;20093;-66
2022/04/18 03:28:22;;;;;;;2.80;2.00;;;;;;;-155.54;100.00;57697.75;4984818;28;20129;-64
2022/04/18 03:30:47;;;;;;;4.32;2.22;;;;;;;-155.54;100.00;57697.75;4998697;28;20586;-68
2022/04/18 03:33:13;;;;;;;3.92;2.35;;;;;;;-155.54;100.00;57697.75;5024841;28;20110;-64
2022/04/18 03:39:50;;;;;;;2.17;1.98;;;;;;;-155.54;100.00;57697.75;5019793;28;20775;-63
2022/04/18 03:41:07;;;;;;;2.53;2.03;;;;;;;-155.54;100.00;57697.75;4985479;28;20510;-66
2022/04/18 03:43:34;;;;;;;4.18;2.40;;;;;;;-155.54;100.00;57697.75;5000474;28;20097;-66
2022/04/18 03:46:00;;;;;;;3.05;2.20;;;;;;;-155.54;100.00;57697.75;5010089;28;20086;-63
2022/04/18 03:48:25;;;;;;;3.80;2.03;;;;;;;-155.54;100.00;57697.75;5021160;28;20624;-66
2022/04/18 03:50:50;;;;;;;3.85;2.35;;;;;;;-155.54;100.00;57697.75;5021064;28;20097;-66
2022/04/18 03:53:16;;;;;;;2.90;2.15;;;;;;;-155.54;100.00;57697.75;5019431;28;20151;-68
2022/04/18 03:55:41;;;;;;;3.67;2.42;;;;;;;-155.54;100.00;57697.75;5006809;28;20494;-65
2022/04/18 03:58:07;;;;;;;3.20;2.15;;;;;;;-155.54;100.00;57697.75;5001969;28;20081;-65
2022/04/18 04:00:34;;;;;;;2.75;2.00;;;;;;;-155.54;100.00;57697.75;4998825;28;20192;-67
2022/04/18 04:03:00;;;;;;;2.83;2.20;;;;;;;-155.54;100.00;57697.75;4993414;28;20079;-66
2022/04/18 04:05:25;;;;;;;3.40;2.28;;;;;;;-155.54;100.00;57697.75;5003005;28;20483;-66
2022/04/18 04:07:50;;;;;;;3.13;2.30;;;;;;;-155.54;100.00;57697.75;4986345;28;20109;-66
2022/04/18 04:10:16;;;;;;;2.30;2.10;;;;;;;-155.54;100.00;57697.75;5000675;28;20101;-67
2022/04/18 04:12:41;;;;;;;2.25;1.92;;;;;;;-155.54;100.00;57697.75;4994653;28;20545;-64
2022/04/18 04:15:07;;;;;;;2.90;2.30;;;;;;;-155.54;100.00;57697.75;4988471;28;20304;-67
2022/04/18 04:17:33;;;;;;;3.00;2.17;;;;;;;-155.54;100.00;57697.75;4989970;28;20082;-67
2022/04/18 04:19:58;;;;;;;3.15;2.00;;;;;;;-155.54;100.00;57697.75;5002409;28;20102;-65
2022/04/18 04:22:24;;;;;;;3.35;2.20;;;;;;;-155.54;100.00;57697.75;4990900;28;20104;-66
2022/04/18 04:24:49;;;;;;;5.10;2.53;;;;;;;-155.54;100.00;57697.75;5020901;28;20309;-67
2022/04/18 04:27:14;;;;;;;3.70;2.55;;;;;;;-155.54;100.00;57697.75;5010849;28;20606;-65
2022/04/18 04:29:40;;;;;;;4.57;2.90;;;;;;;-155.54;100.00;57697.75;4991247;28;20106;-68
2022/04/18 04:32:06;;;;;;;4.95;2.78;;;;;;;-155.54;100.00;57697.75;4988081;28;20112;-66
2022/04/18 04:34:31;;;;;;;2.47;2.22;;;;;;;-155.54;100.00;57697.75;4991621;28;20114;-67
2022/04/18 04:36:56;;;;;;;3.72;2.70;;;;;;;-155.54;100.00;57697.75;4996084;28;20111;-66
2022/04/18 04:39:22;;;;;;;3.80;2.45;;;;;;;-155.54;100.00;57697.75;5001983;28;20125;-65
2022/04/18 04:41:47;;;;;;;6.55;2.70;;;;;;;-155.54;100.00;57697.75;5008064;28;20094;-66
2022/04/18 04:44:13;;;;;;;3.80;2.40;;;;;;;-155.54;100.00;57697.75;5005687;28;20103;-65
2022/04/18 04:46:38;;;;;;;5.78;2.25;;;;;;;-155.54;100.00;57697.75;5017128;28;20069;-67
2022/04/18 04:49:03;;;;;;;2.47;2.13;;;;;;;-155.54;100.00;57697.75;5008646;28;20110;-65
2022/04/18 04:51:29;;;;;;;2.72;2.17;;;;;;;-155.54;100.00;57697.75;5019814;28;20110;-65
2022/04/18 04:53:54;;;;;;;3.88;2.25;;;;;;;-155.54;100.00;57697.75;5021368;28;20222;-64
2022/04/18 04:56:24;;;;;;;2.80;2.22;;;;;;;-155.54;100.00;57697.75;5007774;28;20114;-66
2022/04/18 04:58:50;;;;;;;3.75;2.40;;;;;;;-155.54;100.00;57697.75;5017996;28;20094;-64
2022/04/18 05:01:16;;;;;;;3.80;2.40;;;;;;;-155.54;100.00;57697.75;5014108;28;20181;-66
2022/04/18 05:03:41;;;;;;;3.78;2.10;;;;;;;-155.54;100.00;57697.75;5015429;28;20106;-66
2022/04/18 05:06:07;;;;;;;3.47;2.30;;;;;;;-155.54;100.00;57697.75;5012151;28;20086;-66
2022/04/18 05:08:32;;;;;;;2.67;1.77;;;;;;;-155.54;100.00;57697.75;5020498;28;20097;-66
2022/04/18 05:11:00;;;;;;;3.30;2.17;;;;;;;-155.54;100.00;57697.75;5019174;28;20236;-64
2022/04/18 05:13:26;;;;;;;2.88;2.22;;;;;;;-155.54;100.00;57697.75;5014045;28;20113;-67
2022/04/18 05:15:52;;;;;;;3.17;2.17;;;;;;;-155.54;100.00;57697.75;5019940;28;20579;-66
2022/04/18 05:18:17;;;;;;;3.08;2.22;;;;;;;-155.54;100.00;57697.75;5020409;28;20161;-68
2022/04/18 05:20:44;;;;;;;4.25;2.20;;;;;;;-155.54;100.00;57697.75;5021203;28;20132;-66
2022/04/18 05:23:11;;;;;;;3.10;2.20;;;;;;;-155.54;100.00;57697.75;5007861;28;20113;-65
2022/04/18 05:25:36;;;;;;;3.95;2.40;;;;;;;-155.54;100.00;57697.75;5021085;28;20082;-66
2022/04/18 05:28:02;;;;;;;3.22;2.25;;;;;;;-155.54;100.00;57697.75;5015237;28;20094;-65
2022/04/18 05:30:27;;;;;;;3.90;2.30;;;;;;;-155.54;100.00;57697.75;5018867;28;20116;-69
2022/04/18 05:32:53;;;;;;;3.83;2.45;;;;;;;-155.54;100.00;57697.75;5002318;28;20447;-67
2022/04/18 05:35:18;;;;;;;2.85;2.40;;;;;;;-155.54;100.00;57697.75;5019429;28;20634;-66
2022/04/18 05:37:43;;;;;;;4.18;2.30;;;;;;;-155.54;100.00;57697.75;5017430;28;20089;-66
2022/04/18 05:40:09;;;;;;;2.47;2.20;;;;;;;-155.54;100.00;57697.75;5009844;28;20102;-69
2022/04/18 05:42:35;;;;;;;2.90;2.10;;;;;;;-155.54;100.00;57697.75;5006242;28;20066;-70
2022/04/18 05:45:01;;;;;;;4.75;2.40;;;;;;;-155.54;100.00;57697.75;5014989;28;20114;-67
2022/04/18 05:47:26;;;;;;;4.10;2.25;;;;;;;-155.54;100.00;57697.75;5017026;28;20482;-67
2022/04/18 05:49:52;;;;;;;2.97;2.38;;;;;;;-155.54;100.00;57697.75;5009520;28;20119;-67
2022/04/18 05:52:18;;;;;;;4.35;2.30;;;;;;;-155.54;100.00;57697.75;5018658;28;20100;-67
2022/04/18 05:54:43;;;;;;;3.33;2.20;;;;;;;-155.54;100.00;57697.75;5005659;28;20074;-68
2022/04/18 05:57:08;;;;;;;3.55;2.30;;;;;;;-155.54;100.00;57697.75;5009693;28;20553;-65
2022/04/18 05:59:34;;;;;;;3.17;2.15;;;;;;;-155.54;100.00;57697.75;5018277;28;20491;-65
2022/04/18 06:01:59;;;;;;;3.30;2.00;;;;;;;-155.54;100.00;57697.75;5020051;28;20637;-66
2022/04/18 06:04:25;;;;;;;2.92;2.20;;;;;;;-155.54;100.00;57697.75;5007627;28;20106;-65
2022/04/18 06:06:50;;;;;;;3.08;2.30;;;;;;;-155.54;100.00;57697.75;5019716;28;20132;-67
2022/04/18 06:09:15;;;;;;;2.90;2.20;;;;;;;-155.54;100.00;57697.75;5016337;28;20235;-66
2022/04/18 06:11:41;;;;;;;3.90;2.25;;;;;;;-155.54;100.00;57697.75;5006995;28;20163;-67
2022/04/18 06:14:08;;;;;;;2.65;2.10;;;;;;;-155.54;100.00;57697.75;5011694;28;20720;-67
2022/04/18 06:16:33;;;;;;;3.47;2.10;;;;;;;-155.54;100.00;57697.75;5018598;28;20097;-67
2022/04/18 06:18:59;;;;;;;3.65;2.22;;;;;;;-155.54;100.00;57697.75;5018043;28;20093;-65
2022/04/18 06:21:24;;;;;;;4.30;2.50;;;;;;;-155.54;100.00;57697.75;5012782;28;20105;-67
2022/04/18 06:23:49;;;;;;;2.50;2.20;;;;;;;-155.54;100.00;57697.75;5005691;28;20093;-69
2022/04/18 06:26:15;;;;;;;3.97;2.30;;;;;;;-155.54;100.00;57697.75;5001310;28;20085;-69
2022/04/18 06:28:40;;;;;;;4.75;2.28;;;;;;;-155.54;100.00;57697.75;4999948;28;20109;-67
2022/04/18 06:31:06;;;;;;;5.55;2.58;;;;;;;-155.54;100.00;57697.75;5004966;28;20936;-67
2022/04/18 06:33:34;;;;;;;4.07;2.20;;;;;;;-155.54;100.00;57697.75;5038826;28;20081;-69
2022/04/18 06:36:00;;;;;;;5.07;2.47;;;;;;;-155.54;100.00;57697.75;5008687;28;20113;-67
2022/04/18 06:38:26;;;;;;;3.45;2.70;;;;;;;-155.54;100.00;57697.75;4992644;28;20532;-66
2022/04/18 06:40:51;;;;;;;3.40;2.40;;;;;;;-155.54;100.00;57697.75;4991251;28;20102;-67
2022/04/18 06:43:16;;;;;;;4.45;2.40;;;;;;;-155.54;100.00;57697.75;5004711;28;20124;-66
2022/04/18 06:45:42;;;;;;;4.43;2.67;;;;;;;-155.54;100.00;57697.75;5004784;28;20131;-67
2022/04/18 06:48:07;;;;;;;5.47;2.67;;;;;;;-155.54;100.00;57697.75;5004177;28;20104;-68
2022/04/18 06:50:33;;;;;;;2.88;2.30;;;;;;;-155.54;100.00;57697.75;5004138;28;20176;-65
2022/04/18 06:52:58;;;;;;;4.03;2.00;;;;;;;-155.54;100.00;57697.75;5004388;28;20377;-67
2022/04/18 06:55:23;;;;;;;2.97;2.30;;;;;;;-155.54;100.00;57697.75;5003866;28;20171;-66
2022/04/18 06:57:50;;;;;;;4.55;2.38;;;;;;;-155.54;100.00;57697.75;5004810;28;20357;-68
2022/04/18 07:00:16;;;;;;;3.58;2.10;;;;;;;-155.54;100.00;57697.75;5003793;28;20594;-66
2022/04/18 07:02:50;;;;;;;4.60;2.45;;;;;;;-155.54;100.00;57697.75;5004572;28;20126;-66
2022/04/18 07:05:15;;;;;;;3.45;2.60;;;;;;;-155.54;100.00;57697.75;4991437;28;20106;-69
2022/04/18 07:07:41;;;;;;;4.10;2.35;;;;;;;-155.54;100.00;57697.75;5003129;28;20629;-67
2022/04/18 07:10:07;;;;;;;2.95;2.35;;;;;;;-155.54;100.00;57697.75;5003841;28;20146;-66
2022/04/18 07:12:32;;;;;;;3.60;2.10;;;;;;;-155.54;100.00;57697.75;5003447;28;20396;-65
2022/04/18 07:14:59;;;;;;;3.95;2.50;;;;;;;-155.54;100.00;57697.75;4997205;28;20084;-67
2022/04/18 07:17:25;;;;;;;2.85;2.00;;;;;;;-155.54;100.00;57697.75;4997872;28;20084;-65
2022/04/18 07:19:50;;;;;;;3.95;2.20;;;;;;;-155.54;100.00;57697.75;4996361;28;20677;-67
2022/04/18 07:22:15;;;;;;;2.30;2.00;;;;;;;-155.54;100.00;57697.75;5003897;28;20503;-68
2022/04/18 07:24:41;;;;;;;3.95;2.53;;;;;;;-155.54;100.00;57697.75;5025399;28;20103;-66
2022/04/18 07:27:06;;;;;;;3.17;2.40;;;;;;;-155.54;100.00;57697.75;5036286;28;20417;-67
2022/04/18 07:29:31;;;;;;;4.18;2.20;;;;;;;-155.54;100.00;57697.75;5043520;28;20076;-66
2022/04/18 07:31:57;;;;;;;5.60;2.63;;;;;;;-155.54;100.00;57697.75;5042753;28;20118;-69
2022/04/18 07:34:22;;;;;;;4.05;2.80;;;;;;;-155.54;100.00;57697.75;5030283;28;20078;-65
2022/04/18 07:36:48;;;;;;;5.68;2.50;;;;;;;-155.54;100.00;57697.75;4995091;28;20091;-66
2022/04/18 07:39:13;;;;;;;4.85;2.60;;;;;;;-155.54;100.00;57697.75;4991557;28;20080;-68
2022/04/18 07:41:39;;;;;;;4.85;2.70;;;;;;;-155.54;100.00;57697.75;4996180;28;20055;-67
2022/04/18 07:44:04;;;;;;;3.50;2.45;;;;;;;-155.54;100.00;57697.75;5003460;28;20115;-67
2022/04/18 07:46:30;;;;;;;4.28;2.50;;;;;;;-155.54;100.00;57697.75;5003939;28;20826;-68
2022/04/18 07:48:56;;;;;;;3.08;2.60;;;;;;;-155.54;100.00;57697.75;5020195;28;20098;-66
2022/04/18 07:51:35;;;;;;;3.95;3.17;;;;;;;-155.54;100.00;57697.75;5026275;28;20099;-66
2022/04/18 07:54:01;;;;;;;5.00;3.30;;;;;;;-155.54;100.00;57697.75;5043014;28;20090;-66
2022/04/18 07:56:27;;;;;;;4.13;2.67;;;;;;;-155.54;100.00;57697.75;5041426;28;20488;-68
2022/04/18 07:58:52;;;;;;;4.28;2.83;;;;;;;-155.54;100.00;57697.75;5041495;28;20069;-66
2022/04/18 08:01:19;;;;;;;4.40;2.83;;;;;;;-155.54;100.00;57697.75;5041317;28;20346;-68
2022/04/18 08:03:45;;;;;;;2.92;2.50;;;;;;;-155.54;100.00;57697.75;5042542;28;20096;-66
2022/04/18 08:06:10;;;;;;;4.20;2.85;;;;;;;-155.54;100.00;57697.75;5042935;28;20152;-67
2022/04/18 08:08:36;;;;;;;4.93;2.60;;;;;;;-155.54;100.00;57697.75;5035389;28;20076;-68
2022/04/18 08:11:01;;;;;;;5.45;2.70;;;;;;;-155.54;100.00;57697.75;5014801;28;20164;-67
2022/04/18 08:13:27;;;;;;;3.95;2.85;;;;;;;-155.54;100.00;57697.75;5042895;28;20173;-65
2022/04/18 08:15:52;;;;;;;5.35;2.80;;;;;;;-155.54;100.00;57697.75;5002372;28;20097;-68
2022/04/18 08:18:18;;;;;;;2.42;2.00;;;;;;;-155.54;100.00;57697.75;5001481;28;20077;-67
2022/04/18 08:20:43;;;;;;;4.25;2.10;;;;;;;-155.54;100.00;57697.75;5002066;28;20145;-66
2022/04/18 08:23:09;;;;;;;3.47;2.72;;;;;;;-155.54;100.00;57697.75;5003960;28;20532;-67
2022/04/18 08:25:34;;;;;;;5.22;2.80;;;;;;;-155.54;100.00;57697.75;5042700;28;20101;-66
2022/04/18 08:28:00;;;;;;;3.95;2.60;;;;;;;-155.54;100.00;57697.75;5000507;28;20511;-66
2022/04/18 08:30:25;;;;;;;3.88;2.67;;;;;;;-155.54;100.00;57697.75;5002763;28;20100;-70
2022/04/18 08:32:50;;;;;;;3.47;2.53;;;;;;;-155.54;100.00;57697.75;4988691;28;20488;-68
2022/04/18 08:35:16;;;;;;;3.15;2.30;;;;;;;-155.54;100.00;57697.75;4991049;28;20936;-67
2022/04/18 08:37:41;;;;;;;2.67;2.28;;;;;;;-155.54;100.00;57697.75;4988406;28;20066;-69
2022/04/18 08:40:09;;;;;;;3.45;2.60;;;;;;;-155.54;100.00;57697.75;4999365;28;20476;-67
2022/04/18 08:42:36;;;;;;;2.88;2.40;;;;;;;-155.54;100.00;57697.75;4989775;28;20062;-65
2022/04/18 08:45:12;;;;;;;3.88;2.20;;;;;;;-155.54;100.00;57697.75;5022498;28;20088;-65
2022/04/18 08:53:08;;;;;;;3.65;2.40;;;;;;;-155.54;100.00;57697.75;5011390;28;20326;-65
2022/04/18 08:55:33;;;;;;;3.25;2.42;;;;;;;-155.54;100.00;57697.75;5040080;28;20106;-66
2022/04/18 08:57:59;;;;;;;4.65;3.03;;;;;;;-155.54;100.00;57697.75;5015099;28;20100;-66
2022/04/18 09:00:24;;;;;;;3.20;2.53;;;;;;;-155.54;100.00;57697.75;4999168;28;20728;-67
2022/04/18 09:02:50;;;;;;;3.15;2.20;;;;;;;-155.54;100.00;57697.75;4989181;28;20068;-67
2022/04/18 09:05:16;;;;;;;3.80;2.15;;;;;;;-155.54;100.00;57697.75;4999058;28;20600;-67
2022/04/18 09:07:44;;;;;;;4.38;2.33;;;;;;;-155.54;100.00;57697.75;5010712;28;20085;-67
2022/04/18 09:10:11;;;;;;;4.78;2.38;;;;;;;-155.54;100.00;57697.75;5030651;28;20067;-65
2022/04/18 09:12:39;;;;;;;2.65;2.20;;;;;;;-155.54;100.00;57697.75;4998778;28;20077;-67
2022/04/18 09:15:07;;;;;;;2.28;2.08;;;;;;;-155.54;100.00;57697.75;4997258;28;20054;-67
2022/04/18 09:17:33;;;;;;;3.47;2.40;;;;;;;-155.54;100.00;57697.75;4997476;28;20516;-67
2022/04/18 09:20:12;;;;;;;3.40;2.30;;;;;;;-155.54;100.00;57697.75;4989501;28;20120;-66
2022/04/18 09:22:47;;;;;;;3.15;2.38;;;;;;;-155.54;100.00;57697.75;4999743;28;20100;-63
2022/04/18 09:25:20;;;;;;;3.25;2.30;;;;;;;-155.54;100.00;57697.75;5019640;28;20075;-65
2022/04/18 09:27:56;;;;;;;2.97;2.30;;;;;;;-155.54;100.00;57697.75;5036843;28;20082;-67
2022/04/18 09:30:21;;;;;;;5.55;2.50;;;;;;;-155.54;100.00;57697.75;5014080;28;20083;-67
2022/04/18 09:32:59;;;;;;;2.55;2.20;;;;;;;-155.54;100.00;57697.75;4998027;28;20430;-66
2022/04/18 09:35:25;;;;;;;2.97;2.20;;;;;;;-155.54;100.00;57697.75;4983590;28;20098;-67
2022/04/18 09:37:51;;;;;;;5.65;2.47;;;;;;;-155.54;100.00;57697.75;4996301;28;20104;-67
2022/04/18 09:40:21;;;;;;;3.60;2.10;;;;;;;-155.54;100.00;57697.75;5017820;28;20309;-66
2022/04/18 09:42:46;;;;;;;3.13;2.20;;;;;;;-155.54;100.00;57697.75;5013521;28;20063;-68
2022/04/18 09:45:12;;;;;;;3.17;2.42;;;;;;;-155.54;100.00;57697.75;5036562;28;20084;-66
2022/04/18 09:47:37;;;;;;;4.90;2.42;;;;;;;-155.54;100.00;57697.75;5037062;28;20613;-67
2022/04/18 09:50:58;;;;;;;2.80;2.40;;;;;;;-155.54;100.00;57697.75;5050388;28;20070;-66
2022/04/18 09:53:04;;;;;;;3.55;2.50;;;;;;;-155.54;100.00;57697.75;4991899;28;20153;-67
2022/04/18 09:55:30;;;;;;;3.95;2.30;;;;;;;-155.54;100.00;57697.75;4978575;28;20554;-66
2022/04/18 09:58:03;;;;;;;4.57;2.13;;;;;;;-155.54;100.00;57697.75;4990378;28;20520;-67
2022/04/18 10:00:29;;;;;;;3.20;2.20;;;;;;;-155.54;100.00;57697.75;4996644;28;20160;-66
2022/04/18 10:02:55;;;;;;;3.00;2.15;;;;;;;-155.54;100.00;57697.75;4997708;28;20583;-66
2022/04/18 10:05:20;;;;;;;2.38;1.80;;;;;;;-155.54;100.00;57697.75;5017297;28;20589;-67
2022/04/18 10:07:46;;;;;;;2.40;1.88;;;;;;;-155.54;100.00;57697.75;5023118;28;20087;-67
2022/04/18 10:10:12;;;;;;;1.95;1.60;;;;;;;-155.54;100.00;57697.75;5038632;28;20778;-66
2022/04/18 10:12:38;;;;;;;2.30;2.10;;;;;;;-155.54;100.00;57697.75;5039419;28;20089;-66
2022/04/18 10:15:04;;;;;;;3.45;2.00;;;;;;;-155.54;100.00;57697.75;5039872;28;20049;-68
2022/04/18 10:17:29;;;;;;;2.20;2.00;;;;;;;-155.54;100.00;57697.75;5037889;28;20051;-69
2022/04/18 10:20:06;;;;;;;2.90;1.70;;;;;;;-155.54;100.00;57697.75;5011881;28;20071;-67
2022/04/18 10:22:42;;;;;;;;;;;;;;;-155.54;100.00;57697.75;4988137;28;20445;-65
2022/04/18 10:25:45;;;;;;;2.90;1.80;;;;;;;-155.54;100.00;57697.75;4987712;28;19977;-67
2022/04/18 10:28:11;;;;;;;2.90;1.95;;;;;;;-155.54;100.00;57697.75;4999932;28;20475;-66
2022/04/18 10:30:40;;;;;;;3.92;1.98;;;;;;;-155.54;100.00;57697.75;4993942;28;20176;-67
2022/04/18 10:33:05;;;;;;;2.50;1.90;;;;;;;-155.54;100.00;57697.75;4993657;28;20072;-67
2022/04/18 10:35:30;;;;;;;1.80;1.70;;;;;;;-155.54;100.00;57697.75;4998994;28;20580;-67
2022/04/18 10:37:56;;;;;;;2.40;1.70;;;;;;;-155.54;100.00;57697.75;4997532;28;20041;-68
2022/04/18 10:40:22;;;;;;;1.77;1.67;;;;;;;-155.54;100.00;57697.75;5006187;28;20143;-69
2022/04/18 10:42:48;;;;;;;2.05;1.80;;;;;;;-155.54;100.00;57697.75;5020377;28;20591;-66
2022/04/18 10:45:16;;;;;;;3.50;1.88;;;;;;;-155.54;100.00;57697.75;5052906;28;20075;-68
2022/04/18 10:48:08;;;;;;;2.00;1.80;;;;;;;-155.54;100.00;57697.75;5040053;28;20096;-66
2022/04/18 10:50:40;;;;;;;2.03;1.80;;;;;;;-155.54;100.00;57697.75;5030894;28;20123;-67
2022/04/18 10:53:05;;;;;;;1.85;1.75;;;;;;;-155.54;100.00;57697.75;4995252;28;20065;-67
2022/04/18 10:55:31;;;;;;;1.90;1.70;;;;;;;-155.54;100.00;57697.75;5009176;28;20452;-69
2022/04/18 10:58:16;;;;;;;3.60;1.98;;;;;;;-155.54;100.00;57697.75;5039880;28;20923;-67
2022/04/18 11:00:48;;;;;;;1.98;1.50;;;;;;;-155.54;100.00;57697.75;5040082;28;20242;-68
2022/04/18 11:03:13;;;;;;;1.90;1.58;;;;;;;-155.54;100.00;57697.75;5039145;28;20114;-69
2022/04/18 11:05:38;;;;;;;2.63;1.90;;;;;;;-155.54;100.00;57697.75;5038149;28;20040;-68
2022/04/18 11:08:23;;;;;;;2.00;1.52;;;;;;;-155.54;100.00;57697.75;5030480;28;20061;-66
2022/04/18 11:10:49;;;;;;;2.10;1.90;;;;;;;-155.54;100.00;57697.75;5026886;28;20067;-69
2022/04/18 11:13:14;;;;;;;1.75;1.60;;;;;;;-155.54;100.00;57697.75;5039719;28;20545;-67
2022/04/18 11:15:40;;;;;;;3.75;1.75;;;;;;;-155.54;100.00;57697.75;5038452;28;20049;-68
2022/04/18 11:18:08;;;;;;;1.75;1.60;;;;;;;-155.54;100.00;57697.75;5028502;28;20030;-69
2022/04/18 11:20:35;;;;;;;4.90;1.98;;;;;;;-155.54;100.00;57697.75;4998626;28;20060;-66